createdAt,value
2019-04-11T00:00:35.490Z,0
2019-04-11T00:01:42.056Z,0
2019-04-11T00:02:38.543Z,0
2019-04-11T00:03:39.810Z,0
2019-04-11T00:04:42.041Z,0
2019-04-11T00:05:43.341Z,0
2019-04-11T00:06:44.055Z,0
2019-04-11T00:07:45.450Z,0
2019-04-11T00:08:47.019Z,0
2019-04-11T00:09:49.241Z,0
2019-04-11T00:10:49.769Z,0
2019-04-11T00:11:52.369Z,0
2019-04-11T00:12:52.719Z,0
2019-04-11T00:13:54.090Z,0
2019-04-11T00:14:56.002Z,0
2019-04-11T00:15:57.153Z,0
2019-04-11T00:16:58.383Z,0
2019-04-11T00:18:00.590Z,0
2019-04-11T00:19:01.333Z,0
2019-04-11T00:20:02.734Z,0
2019-04-11T00:21:04.508Z,0
2019-04-11T00:22:05.749Z,0
2019-04-11T00:23:08.138Z,0
2019-04-11T00:24:08.416Z,0
2019-04-11T00:25:09.809Z,0
2019-04-11T00:26:11.728Z,0
2019-04-11T00:27:12.939Z,0
2019-04-11T00:28:15.244Z,0
2019-04-11T00:29:16.329Z,0
2019-04-11T00:30:17.774Z,0
2019-04-11T00:31:18.910Z,0
2019-04-11T00:32:19.856Z,0
2019-04-11T00:33:23.118Z,0
2019-04-11T00:34:22.820Z,0
2019-04-11T00:35:24.216Z,0
2019-04-11T00:36:25.605Z,0
2019-04-11T00:37:27.318Z,0
2019-04-11T00:38:28.499Z,0
2019-04-11T00:39:30.001Z,0
2019-04-11T00:40:31.481Z,0
2019-04-11T00:41:32.880Z,0
2019-04-11T00:42:34.605Z,0
2019-04-11T00:43:40.022Z,0
2019-04-11T00:44:37.156Z,0
2019-04-11T00:45:38.547Z,0
2019-04-11T00:46:40.495Z,0
2019-04-11T00:47:42.167Z,0
2019-04-11T00:48:43.990Z,0
2019-04-11T00:49:46.451Z,0
2019-04-11T00:50:47.565Z,0
2019-04-11T00:51:49.829Z,0
2019-04-11T00:52:50.371Z,0
2019-04-11T00:53:52.066Z,0
2019-04-11T00:54:55.347Z,0
2019-04-11T00:55:55.940Z,0
2019-04-11T00:56:57.334Z,0
2019-04-11T00:57:58.815Z,0
2019-04-11T00:59:00.255Z,0
2019-04-11T01:00:02.824Z,0
2019-04-11T01:01:03.732Z,0
2019-04-11T01:02:05.086Z,0
2019-04-11T01:03:06.509Z,0
2019-04-11T01:04:07.587Z,0
2019-04-11T01:05:09.539Z,0
2019-04-11T01:06:10.339Z,0
2019-04-11T01:07:11.735Z,0
2019-04-11T01:08:13.700Z,0
2019-04-11T01:09:14.851Z,0
2019-04-11T01:10:16.199Z,0
2019-04-11T01:11:17.459Z,0
2019-04-11T01:12:18.991Z,0
2019-04-11T01:13:20.869Z,0
2019-04-11T01:14:21.736Z,0
2019-04-11T01:15:23.798Z,0
2019-04-11T01:16:24.665Z,0
2019-04-11T01:17:26.066Z,0
2019-04-11T01:18:27.756Z,0
2019-04-11T01:19:29.079Z,0
2019-04-11T01:20:31.308Z,0
2019-04-11T01:21:32.717Z,0
2019-04-11T01:22:34.026Z,0
2019-04-11T01:23:35.345Z,0
2019-04-11T01:24:36.062Z,0
2019-04-11T01:25:37.458Z,0
2019-04-11T01:26:38.945Z,0
2019-04-11T01:27:41.110Z,0
2019-04-11T01:28:42.810Z,0
2019-04-11T01:29:43.909Z,0
2019-04-11T01:30:45.137Z,0
2019-04-11T01:31:46.213Z,0
2019-04-11T01:32:48.608Z,0
2019-04-11T01:33:48.743Z,0
2019-04-11T01:34:50.850Z,0
2019-04-11T01:35:51.705Z,0
2019-04-11T01:36:53.417Z,0
2019-04-11T01:37:55.671Z,0
2019-04-11T01:38:56.912Z,0
2019-04-11T01:39:57.343Z,0
2019-04-11T01:40:58.907Z,0
2019-04-11T01:42:00.729Z,0
2019-04-11T01:43:01.903Z,0
2019-04-11T01:44:05.498Z,0
2019-04-11T01:45:05.249Z,0
2019-04-11T01:46:06.125Z,0
2019-04-11T01:47:08.671Z,0
2019-04-11T01:48:09.093Z,0
2019-04-11T01:49:10.348Z,0
2019-04-11T01:50:12.553Z,0
2019-04-11T01:51:13.751Z,0
2019-04-11T01:52:14.670Z,0
2019-04-11T01:53:17.098Z,0
2019-04-11T01:54:17.633Z,0
2019-04-11T01:55:19.048Z,0
2019-04-11T01:56:21.045Z,0
2019-04-11T01:57:22.134Z,0
2019-04-11T01:58:23.309Z,0
2019-04-11T01:59:24.721Z,0
2019-04-11T02:00:26.273Z,0
2019-04-11T02:01:28.462Z,0
2019-04-11T02:02:29.154Z,0
2019-04-11T02:03:30.837Z,0
2019-04-11T02:04:32.068Z,0
2019-04-11T02:05:33.396Z,0
2019-04-11T02:06:36.126Z,0
2019-04-11T02:07:36.574Z,0
2019-04-11T02:08:37.811Z,0
2019-04-11T02:09:39.987Z,0
2019-04-11T02:10:41.229Z,0
2019-04-11T02:11:42.038Z,0
2019-04-11T02:12:43.648Z,0
2019-04-11T02:13:44.920Z,0
2019-04-11T02:14:46.315Z,0
2019-04-11T02:15:48.378Z,0
2019-04-11T02:16:49.619Z,0
2019-04-11T02:17:50.914Z,0
2019-04-11T02:18:51.997Z,0
2019-04-11T02:19:53.390Z,0
2019-04-11T02:20:55.715Z,0
2019-04-11T02:21:56.318Z,0
2019-04-11T02:22:57.714Z,0
2019-04-11T02:23:59.417Z,0
2019-04-11T02:25:00.679Z,0
2019-04-11T02:26:03.009Z,0
2019-04-11T02:27:03.521Z,0
2019-04-11T02:28:04.922Z,0
2019-04-11T02:29:06.403Z,0
2019-04-11T02:30:08.840Z,0
2019-04-11T02:31:10.150Z,0
2019-04-11T02:32:12.192Z,0
2019-04-11T02:33:13.574Z,0
2019-04-11T02:34:14.036Z,0
2019-04-11T02:35:15.418Z,0
2019-04-11T02:36:16.756Z,0
2019-04-11T02:37:17.644Z,0
2019-04-11T02:38:19.152Z,0
2019-04-11T02:39:22.396Z,0
2019-04-11T02:40:24.073Z,0
2019-04-11T02:41:25.288Z,0
2019-04-11T02:42:25.542Z,0
2019-04-11T02:43:26.367Z,0
2019-04-11T02:44:39.489Z,0
2019-04-11T02:45:43.309Z,0
2019-04-11T02:46:38.505Z,0
2019-04-11T02:47:34.698Z,0
2019-04-11T02:48:35.265Z,0
2019-04-11T02:49:35.195Z,0
2019-04-11T02:50:37.111Z,0
2019-04-11T02:51:38.728Z,0
2019-04-11T02:52:40.164Z,0
2019-04-11T02:53:41.038Z,0
2019-04-11T02:54:42.960Z,0
2019-04-11T02:55:43.840Z,0
2019-04-11T02:56:45.550Z,0
2019-04-11T02:57:46.113Z,0
2019-04-11T02:58:48.161Z,0
2019-04-11T02:59:49.069Z,0
2019-04-11T03:00:51.068Z,0
2019-04-11T03:01:52.819Z,0
2019-04-11T03:02:53.308Z,0
2019-04-11T03:03:56.147Z,0
2019-04-11T03:04:56.376Z,0
2019-04-11T03:05:58.137Z,0
2019-04-11T03:06:59.834Z,0
2019-04-11T03:08:01.131Z,0
2019-04-11T03:09:02.358Z,0
2019-04-11T03:10:03.121Z,0
2019-04-11T03:11:05.172Z,0
2019-04-11T03:12:07.167Z,0
2019-04-11T03:13:08.258Z,0
2019-04-11T03:14:09.695Z,0
2019-04-11T03:15:27.163Z,0
2019-04-11T03:16:24.877Z,0
2019-04-11T03:17:19.665Z,0
2019-04-11T03:18:34.385Z,0
2019-04-11T03:19:30.399Z,0
2019-04-11T03:20:26.466Z,0
2019-04-11T03:21:21.579Z,0
2019-04-11T03:22:20.241Z,0
2019-04-11T03:23:23.041Z,0
2019-04-11T03:24:24.279Z,0
2019-04-11T03:25:24.628Z,0
2019-04-11T03:26:26.942Z,0
2019-04-11T03:27:28.661Z,0
2019-04-11T03:28:30.758Z,0
2019-04-11T03:29:30.880Z,0
2019-04-11T03:30:46.588Z,0
2019-04-11T03:32:13.360Z,0
2019-04-11T03:33:47.001Z,0
2019-04-11T03:35:34.948Z,0
2019-04-11T03:38:04.080Z,0
2019-04-11T03:39:02.059Z,0
2019-04-11T03:39:59.298Z,0
2019-04-11T03:41:00.535Z,0
2019-04-11T03:42:04.126Z,0
2019-04-11T03:43:04.301Z,0
2019-04-11T03:43:58.976Z,0
2019-04-11T03:45:11.390Z,0
2019-04-11T03:46:11.767Z,0
2019-04-11T03:47:12.113Z,0
2019-04-11T03:48:10.421Z,0
2019-04-11T03:49:03.834Z,0
2019-04-11T03:50:05.076Z,0
2019-04-11T03:50:59.534Z,0
2019-04-11T03:52:01.181Z,0
2019-04-11T03:53:03.514Z,0
2019-04-11T03:54:03.135Z,0
2019-04-11T03:55:06.773Z,0
2019-04-11T03:56:07.586Z,0
2019-04-11T03:57:07.853Z,0
2019-04-11T03:58:09.084Z,0
2019-04-11T03:59:12.431Z,0
2019-04-11T04:00:14.251Z,0
2019-04-11T04:01:14.081Z,0
2019-04-11T04:02:15.330Z,0
2019-04-11T04:03:15.930Z,0
2019-04-11T04:04:19.496Z,0
2019-04-11T04:05:19.002Z,0
2019-04-11T04:06:21.043Z,0
2019-04-11T04:07:23.347Z,0
2019-04-11T04:08:24.585Z,0
2019-04-11T04:09:26.189Z,0
2019-04-11T04:10:26.065Z,0
2019-04-11T04:11:27.914Z,0
2019-04-11T04:12:29.327Z,0
2019-04-11T04:13:31.853Z,0
2019-04-11T04:14:32.563Z,0
2019-04-11T04:15:48.971Z,0
2019-04-11T04:16:40.848Z,0
2019-04-11T04:17:35.887Z,0
2019-04-11T04:18:37.947Z,0
2019-04-11T04:19:39.686Z,0
2019-04-11T04:20:41.798Z,0
2019-04-11T04:21:42.805Z,0
2019-04-11T04:22:44.077Z,0
2019-04-11T04:23:45.382Z,0
2019-04-11T04:24:46.810Z,0
2019-04-11T04:25:47.329Z,0
2019-04-11T04:26:48.471Z,0
2019-04-11T04:27:51.263Z,0
2019-04-11T04:28:53.457Z,0
2019-04-11T04:29:57.392Z,0
2019-04-11T04:30:55.395Z,0
2019-04-11T04:31:57.250Z,0
2019-04-11T04:32:58.198Z,0
2019-04-11T04:33:59.749Z,0
2019-04-11T04:35:01.649Z,0
2019-04-11T04:36:04.824Z,0
2019-04-11T04:37:05.621Z,0
2019-04-11T04:38:06.981Z,0
2019-04-11T04:39:08.572Z,0
2019-04-11T04:40:23.822Z,0
2019-04-11T04:41:19.697Z,5
2019-04-11T04:42:21.079Z,5
2019-04-11T04:43:14.421Z,5
2019-04-11T04:44:14.429Z,5
2019-04-11T04:45:16.338Z,5
2019-04-11T04:46:31.449Z,5
2019-04-11T04:47:25.072Z,5
2019-04-11T04:48:24.213Z,5
2019-04-11T04:49:21.330Z,10
2019-04-11T04:50:24.376Z,10
2019-04-11T04:51:24.361Z,10
2019-04-11T04:52:27.238Z,10
2019-04-11T04:53:28.268Z,10
2019-04-11T04:54:28.948Z,15
2019-04-11T04:55:30.266Z,15
2019-04-11T04:56:32.256Z,15
2019-04-11T04:57:33.929Z,15
2019-04-11T04:58:34.358Z,15
2019-04-11T04:59:37.438Z,20
2019-04-11T05:00:37.626Z,20
2019-04-11T05:01:39.188Z,20
2019-04-11T05:02:39.774Z,20
2019-04-11T05:03:42.320Z,25
2019-04-11T05:04:43.508Z,25
2019-04-11T05:05:44.264Z,25
2019-04-11T05:06:48.113Z,25
2019-04-11T05:07:46.957Z,30
2019-04-11T05:08:49.255Z,30
2019-04-11T05:09:50.358Z,30
2019-04-11T05:10:51.289Z,35
2019-04-11T05:11:53.106Z,35
2019-04-11T05:12:54.781Z,35
2019-04-11T05:13:56.464Z,35
2019-04-11T05:14:56.481Z,40
2019-04-11T05:16:06.998Z,40
2019-04-11T05:17:00.436Z,40
2019-04-11T05:18:01.848Z,45
2019-04-11T05:19:02.171Z,45
2019-04-11T05:20:03.568Z,45
2019-04-11T05:21:05.309Z,50
2019-04-11T05:22:06.558Z,50
2019-04-11T05:23:08.451Z,55
2019-04-11T05:24:10.328Z,55
2019-04-11T05:25:10.809Z,55
2019-04-11T05:26:12.209Z,55
2019-04-11T05:27:14.637Z,60
2019-04-11T05:28:15.131Z,60
2019-04-11T05:29:17.434Z,65
2019-04-11T05:30:18.662Z,65
2019-04-11T05:31:20.532Z,65
2019-04-11T05:32:21.919Z,65
2019-04-11T05:33:23.144Z,70
2019-04-11T05:34:23.808Z,70
2019-04-11T05:35:25.088Z,75
2019-04-11T05:36:26.485Z,75
2019-04-11T05:37:29.137Z,80
2019-04-11T05:38:29.342Z,80
2019-04-11T05:39:31.682Z,80
2019-04-11T05:40:32.464Z,85
2019-04-11T05:41:33.729Z,85
2019-04-11T05:42:35.532Z,90
2019-04-11T05:43:38.633Z,90
2019-04-11T05:44:40.013Z,90
2019-04-11T05:45:40.090Z,95
2019-04-11T05:46:49.173Z,100
2019-04-11T05:47:43.304Z,100
2019-04-11T05:48:43.734Z,105
2019-04-11T05:49:46.524Z,105
2019-04-11T05:50:49.546Z,105
2019-04-11T05:51:49.165Z,110
2019-04-11T05:52:50.393Z,115
2019-04-11T05:53:52.943Z,120
2019-04-11T05:54:52.563Z,125
2019-04-11T05:55:53.541Z,125
2019-04-11T05:56:57.673Z,125
2019-04-11T05:57:56.499Z,130
2019-04-11T05:58:58.014Z,130
2019-04-11T05:59:59.414Z,135
2019-04-11T06:01:01.339Z,135
2019-04-11T06:02:06.778Z,135
2019-04-11T06:03:03.820Z,135
2019-04-11T06:04:05.926Z,140
2019-04-11T06:05:06.865Z,140
2019-04-11T06:06:08.576Z,140
2019-04-11T06:07:10.456Z,145
2019-04-11T06:08:12.234Z,145
2019-04-11T06:09:14.735Z,155
2019-04-11T06:10:14.379Z,165
2019-04-11T06:11:16.442Z,165
2019-04-11T06:12:17.149Z,180
2019-04-11T06:13:18.519Z,195
2019-04-11T06:14:19.447Z,205
2019-04-11T06:15:21.424Z,235
2019-04-11T06:16:22.888Z,250
2019-04-11T06:17:23.801Z,260
2019-04-11T06:18:32.065Z,315
2019-04-11T06:19:26.036Z,380
2019-04-11T06:20:27.553Z,445
2019-04-11T06:21:28.951Z,465
2019-04-11T06:22:30.354Z,430
2019-04-11T06:23:32.075Z,405
2019-04-11T06:24:34.217Z,450
2019-04-11T06:25:35.873Z,570
2019-04-11T06:26:36.571Z,580
2019-04-11T06:27:40.103Z,595
2019-04-11T06:28:39.489Z,635
2019-04-11T06:29:41.050Z,650
2019-04-11T06:30:42.570Z,670
2019-04-11T06:31:43.972Z,675
2019-04-11T06:32:45.838Z,695
2019-04-11T06:33:46.964Z,705
2019-04-11T06:34:49.205Z,720
2019-04-11T06:35:50.352Z,730
2019-04-11T06:36:51.227Z,730
2019-04-11T06:37:52.618Z,735
2019-04-11T06:38:54.698Z,745
2019-04-11T06:39:57.747Z,765
2019-04-11T06:40:57.741Z,775
2019-04-11T06:41:59.061Z,785
2019-04-11T06:42:59.918Z,795
2019-04-11T06:44:02.574Z,810
2019-04-11T06:45:04.002Z,835
2019-04-11T06:46:04.925Z,845
2019-04-11T06:47:05.823Z,855
2019-04-11T06:48:07.381Z,865
2019-04-11T06:49:09.829Z,880
2019-04-11T06:50:10.975Z,880
2019-04-11T06:51:11.790Z,865
2019-04-11T06:52:13.198Z,870
2019-04-11T06:53:14.874Z,870
2019-04-11T06:54:16.884Z,885
2019-04-11T06:55:18.267Z,900
2019-04-11T06:56:19.402Z,895
2019-04-11T06:57:21.603Z,890
2019-04-11T06:58:23.417Z,885
2019-04-11T06:59:24.021Z,920
2019-04-11T07:00:25.321Z,945
2019-04-11T07:01:27.861Z,965
2019-04-11T07:02:28.391Z,980
2019-04-11T07:03:30.820Z,980
2019-04-11T07:04:31.496Z,980
2019-04-11T07:05:33.181Z,1005
2019-04-11T07:06:34.080Z,1005
2019-04-11T07:07:36.218Z,1005
2019-04-11T07:08:37.032Z,1015
2019-04-11T07:09:39.307Z,1030
2019-04-11T07:10:39.978Z,1060
2019-04-11T07:11:42.595Z,1070
2019-04-11T07:12:42.875Z,1085
2019-04-11T07:13:45.467Z,1085
2019-04-11T07:14:45.679Z,1120
2019-04-11T07:15:48.117Z,1130
2019-04-11T07:16:59.252Z,1125
2019-04-11T07:17:49.893Z,1140
2019-04-11T07:18:51.298Z,1160
2019-04-11T07:19:53.618Z,1155
2019-04-11T07:20:54.331Z,1160
2019-04-11T07:21:56.050Z,1160
2019-04-11T07:22:57.530Z,1185
2019-04-11T07:23:59.647Z,1225
2019-04-11T07:24:59.909Z,1160
2019-04-11T07:26:02.452Z,1050
2019-04-11T07:27:03.094Z,845
2019-04-11T07:28:04.327Z,960
2019-04-11T07:29:06.565Z,1065
2019-04-11T07:30:07.373Z,995
2019-04-11T07:31:08.788Z,830
2019-04-11T07:32:11.515Z,485
2019-04-11T07:33:12.717Z,395
2019-04-11T07:34:13.120Z,530
2019-04-11T07:35:15.633Z,535
2019-04-11T07:36:15.893Z,450
2019-04-11T07:37:17.446Z,575
2019-04-11T07:38:18.852Z,575
2019-04-11T07:39:20.257Z,535
2019-04-11T07:40:21.964Z,655
2019-04-11T07:41:23.933Z,875
2019-04-11T07:42:25.934Z,835
2019-04-11T07:43:26.815Z,660
2019-04-11T07:44:28.806Z,700
2019-04-11T07:45:29.881Z,885
2019-04-11T07:46:30.763Z,1220
2019-04-11T07:47:32.326Z,1440
2019-04-11T07:48:33.827Z,1420
2019-04-11T07:49:35.074Z,1495
2019-04-11T07:50:36.193Z,1365
2019-04-11T07:51:38.527Z,1050
2019-04-11T07:52:39.113Z,1095
2019-04-11T07:53:40.518Z,1505
2019-04-11T07:54:43.243Z,1580
2019-04-11T07:55:44.419Z,1570
2019-04-11T07:56:44.769Z,1385
2019-04-11T07:57:46.862Z,1055
2019-04-11T07:58:47.888Z,765
2019-04-11T07:59:49.142Z,570
2019-04-11T08:00:52.894Z,655
2019-04-11T08:01:52.909Z,930
2019-04-11T08:02:53.550Z,1175
2019-04-11T08:03:55.705Z,1100
2019-04-11T08:04:57.560Z,690
2019-04-11T08:05:58.750Z,750
2019-04-11T08:06:59.308Z,1275
2019-04-11T08:08:00.714Z,1750
2019-04-11T08:09:02.705Z,1725
2019-04-11T08:10:03.593Z,1445
2019-04-11T08:11:05.072Z,1610
2019-04-11T08:12:06.595Z,1665
2019-04-11T08:13:08.042Z,1475
2019-04-11T08:14:10.397Z,1255
2019-04-11T08:15:10.934Z,800
2019-04-11T08:16:12.599Z,665
2019-04-11T08:17:25.431Z,750
2019-04-11T08:18:16.595Z,985
2019-04-11T08:19:17.340Z,1390
2019-04-11T08:20:19.308Z,1330
2019-04-11T08:21:19.919Z,1235
2019-04-11T08:22:21.071Z,1385
2019-04-11T08:23:23.444Z,1530
2019-04-11T08:24:25.858Z,1725
2019-04-11T08:25:25.446Z,1595
2019-04-11T08:26:26.854Z,1380
2019-04-11T08:27:28.361Z,1560
2019-04-11T08:28:30.905Z,1575
2019-04-11T08:29:31.107Z,1895
2019-04-11T08:30:33.059Z,2120
2019-04-11T08:31:34.019Z,2175
2019-04-11T08:32:36.031Z,1705
2019-04-11T08:33:36.967Z,1115
2019-04-11T08:34:39.577Z,955
2019-04-11T08:35:40.181Z,1375
2019-04-11T08:36:42.068Z,1725
2019-04-11T08:37:43.380Z,1690
2019-04-11T08:38:44.723Z,1525
2019-04-11T08:39:45.482Z,1680
2019-04-11T08:40:47.183Z,2150
2019-04-11T08:41:49.560Z,2240
2019-04-11T08:42:50.875Z,2165
2019-04-11T08:43:51.275Z,2180
2019-04-11T08:44:52.608Z,2160
2019-04-11T08:45:54.138Z,1935
2019-04-11T08:46:55.982Z,1600
2019-04-11T08:47:58.784Z,1395
2019-04-11T08:48:59.229Z,1430
2019-04-11T08:49:59.677Z,1540
2019-04-11T08:51:01.252Z,1905
2019-04-11T08:52:03.437Z,1965
2019-04-11T08:53:04.558Z,1900
2019-04-11T08:54:05.573Z,1760
2019-04-11T08:55:08.152Z,1855
2019-04-11T08:56:08.360Z,2105
2019-04-11T08:57:10.108Z,2460
2019-04-11T08:58:12.034Z,2430
2019-04-11T08:59:13.357Z,2675
2019-04-11T09:00:14.218Z,2990
2019-04-11T09:01:15.892Z,3030
2019-04-11T09:02:16.997Z,3175
2019-04-11T09:03:19.655Z,3295
2019-04-11T09:04:19.910Z,3410
2019-04-11T09:05:21.317Z,3495
2019-04-11T09:06:22.903Z,3540
2019-04-11T09:07:25.353Z,3380
2019-04-11T09:08:26.804Z,3225
2019-04-11T09:09:27.281Z,3115
2019-04-11T09:10:28.502Z,2620
2019-04-11T09:11:30.838Z,2065
2019-04-11T09:12:31.437Z,1900
2019-04-11T09:13:33.450Z,1805
2019-04-11T09:14:34.384Z,1775
2019-04-11T09:15:36.994Z,1795
2019-04-11T09:16:37.465Z,1850
2019-04-11T09:17:38.721Z,1885
2019-04-11T09:18:40.148Z,1905
2019-04-11T09:19:41.561Z,1830
2019-04-11T09:20:43.435Z,1775
2019-04-11T09:21:44.600Z,1685
2019-04-11T09:22:47.087Z,1575
2019-04-11T09:23:48.051Z,1560
2019-04-11T09:24:48.790Z,1265
2019-04-11T09:25:52.958Z,710
2019-04-11T09:26:51.978Z,655
2019-04-11T09:27:54.026Z,645
2019-04-11T09:28:54.515Z,675
2019-04-11T09:29:56.586Z,680
2019-04-11T09:30:57.445Z,720
2019-04-11T09:32:00.051Z,880
2019-04-11T09:33:00.318Z,1520
2019-04-11T09:34:01.752Z,1695
2019-04-11T09:35:03.175Z,1765
2019-04-11T09:36:05.847Z,1760
2019-04-11T09:37:06.167Z,1850
2019-04-11T09:38:08.381Z,1825
2019-04-11T09:39:08.891Z,1745
2019-04-11T09:40:10.316Z,1745
2019-04-11T09:41:12.229Z,1660
2019-04-11T09:42:13.446Z,815
2019-04-11T09:43:15.668Z,1795
2019-04-11T09:44:16.910Z,1795
2019-04-11T09:45:17.622Z,1800
2019-04-11T09:46:19.035Z,1720
2019-04-11T09:47:20.575Z,1715
2019-04-11T09:48:23.370Z,1865
2019-04-11T09:49:23.346Z,1990
2019-04-11T09:50:24.892Z,2120
2019-04-11T09:51:29.013Z,2045
2019-04-11T09:52:29.005Z,1995
2019-04-11T09:53:30.275Z,2045
2019-04-11T09:54:30.737Z,2055
2019-04-11T09:55:33.212Z,2110
2019-04-11T09:56:33.692Z,1760
2019-04-11T09:57:35.099Z,2050
2019-04-11T09:58:37.826Z,2020
2019-04-11T09:59:39.270Z,1570
2019-04-11T10:00:39.364Z,1925
2019-04-11T10:01:40.849Z,1945
2019-04-11T10:02:42.257Z,1665
2019-04-11T10:03:45.026Z,1945
2019-04-11T10:04:45.101Z,2365
2019-04-11T10:05:46.775Z,2580
2019-04-11T10:06:48.726Z,2740
2019-04-11T10:07:50.208Z,2380
2019-04-11T10:08:51.224Z,2315
2019-04-11T10:09:52.645Z,2585
2019-04-11T10:10:53.748Z,2805
2019-04-11T10:11:55.232Z,2445
2019-04-11T10:12:56.699Z,1880
2019-04-11T10:13:59.427Z,1050
2019-04-11T10:14:59.478Z,540
2019-04-11T10:16:01.835Z,500
2019-04-11T10:17:02.388Z,505
2019-04-11T10:18:05.115Z,1305
2019-04-11T10:19:05.517Z,1025
2019-04-11T10:20:06.717Z,985
2019-04-11T10:21:08.903Z,970
2019-04-11T10:22:10.937Z,1160
2019-04-11T10:23:12.386Z,1250
2019-04-11T10:24:15.824Z,1140
2019-04-11T10:25:14.842Z,1145
2019-04-11T10:26:15.972Z,2425
2019-04-11T10:27:16.731Z,2930
2019-04-11T10:28:19.478Z,2880
2019-04-11T10:29:19.682Z,2780
2019-04-11T10:30:22.451Z,2755
2019-04-11T10:31:22.627Z,2770
2019-04-11T10:32:25.317Z,2795
2019-04-11T10:33:25.705Z,1870
2019-04-11T10:34:27.928Z,345
2019-04-11T10:35:28.329Z,325
2019-04-11T10:36:29.739Z,310
2019-04-11T10:37:31.741Z,315
2019-04-11T10:38:32.801Z,330
2019-04-11T10:39:35.397Z,350
2019-04-11T10:40:36.478Z,345
2019-04-11T10:41:37.835Z,320
2019-04-11T10:42:39.030Z,270
2019-04-11T10:43:40.365Z,260
2019-04-11T10:44:42.215Z,255
2019-04-11T10:45:42.798Z,260
2019-04-11T10:46:44.196Z,270
2019-04-11T10:47:45.599Z,295
2019-04-11T10:48:48.592Z,340
2019-04-11T10:49:48.479Z,400
2019-04-11T10:50:50.614Z,425
2019-04-11T10:51:51.438Z,445
2019-04-11T10:52:52.982Z,485
2019-04-11T10:53:55.377Z,510
2019-04-11T10:54:55.757Z,530
2019-04-11T10:55:57.864Z,495
2019-04-11T10:56:58.538Z,410
2019-04-11T10:58:00.336Z,350
2019-04-11T10:59:01.662Z,340
2019-04-11T11:00:03.137Z,360
2019-04-11T11:01:04.399Z,380
2019-04-11T11:02:06.538Z,425
2019-04-11T11:03:07.174Z,485
2019-04-11T11:04:09.487Z,520
2019-04-11T11:05:10.101Z,505
2019-04-11T11:06:11.589Z,555
2019-04-11T11:07:13.105Z,570
2019-04-11T11:08:15.346Z,640
2019-04-11T11:09:15.927Z,1330
2019-04-11T11:10:17.538Z,1200
2019-04-11T11:11:19.471Z,975
2019-04-11T11:12:21.016Z,595
2019-04-11T11:13:21.723Z,625
2019-04-11T11:14:22.982Z,445
2019-04-11T11:15:25.319Z,410
2019-04-11T11:16:27.979Z,415
2019-04-11T11:17:47.193Z,385
2019-04-11T11:18:48.253Z,365
2019-04-11T11:19:45.691Z,370
2019-04-11T11:20:39.098Z,385
2019-04-11T11:21:35.212Z,400
2019-04-11T11:22:36.025Z,400
2019-04-11T11:23:37.199Z,405
2019-04-11T11:24:40.247Z,430
2019-04-11T11:25:44.436Z,460
2019-04-11T11:26:41.146Z,495
2019-04-11T11:27:43.656Z,595
2019-04-11T11:28:43.910Z,555
2019-04-11T11:29:45.468Z,705
2019-04-11T11:30:47.399Z,815
2019-04-11T11:31:49.107Z,645
2019-04-11T11:32:49.747Z,510
2019-04-11T11:33:51.451Z,540
2019-04-11T11:34:53.373Z,605
2019-04-11T11:35:57.847Z,555
2019-04-11T11:36:56.672Z,555
2019-04-11T11:37:57.557Z,525
2019-04-11T11:38:58.786Z,455
2019-04-11T11:40:04.446Z,435
2019-04-11T11:41:01.841Z,450
2019-04-11T11:42:04.092Z,490
2019-04-11T11:43:04.909Z,520
2019-04-11T11:44:07.570Z,565
2019-04-11T11:45:08.947Z,615
2019-04-11T11:46:09.974Z,680
2019-04-11T11:47:11.890Z,860
2019-04-11T11:48:17.384Z,810
2019-04-11T11:49:14.101Z,700
2019-04-11T11:50:18.438Z,640
2019-04-11T11:51:17.258Z,625
2019-04-11T11:52:17.718Z,515
2019-04-11T11:53:19.482Z,520
2019-04-11T11:54:21.918Z,525
2019-04-11T11:55:22.392Z,550
2019-04-11T11:56:24.153Z,540
2019-04-11T11:57:25.354Z,535
2019-04-11T11:58:27.911Z,545
2019-04-11T11:59:30.182Z,595
2019-04-11T12:00:30.286Z,600
2019-04-11T12:01:31.578Z,690
2019-04-11T12:02:32.890Z,660
2019-04-11T12:03:35.087Z,500
2019-04-11T12:04:36.390Z,465
2019-04-11T12:05:37.319Z,445
2019-04-11T12:06:38.831Z,430
2019-04-11T12:07:40.952Z,440
2019-04-11T12:08:45.867Z,455
2019-04-11T12:09:43.253Z,480
2019-04-11T12:10:45.773Z,505
2019-04-11T12:11:46.367Z,520
2019-04-11T12:12:48.351Z,540
2019-04-11T12:13:49.014Z,570
2019-04-11T12:14:51.653Z,645
2019-04-11T12:15:53.161Z,595
2019-04-11T12:16:59.582Z,570
2019-04-11T12:17:54.636Z,570
2019-04-11T12:18:56.238Z,510
2019-04-11T12:20:02.599Z,485
2019-04-11T12:20:59.352Z,470
2019-04-11T12:22:00.455Z,460
2019-04-11T12:23:01.861Z,440
2019-04-11T12:24:06.544Z,435
2019-04-11T12:25:04.852Z,405
2019-04-11T12:26:06.293Z,380
2019-04-11T12:27:08.688Z,360
2019-04-11T12:28:13.128Z,345
2019-04-11T12:29:10.468Z,335
2019-04-11T12:30:11.981Z,335
2019-04-11T12:31:13.407Z,340
2019-04-11T12:32:14.884Z,335
2019-04-11T12:33:17.295Z,335
2019-04-11T12:34:18.533Z,330
2019-04-11T12:35:19.892Z,320
2019-04-11T12:36:21.036Z,315
2019-04-11T12:37:22.560Z,310
2019-04-11T12:38:24.683Z,310
2019-04-11T12:39:25.376Z,315
2019-04-11T12:40:26.384Z,315
2019-04-11T12:41:27.789Z,305
2019-04-11T12:42:29.194Z,300
2019-04-11T12:43:30.705Z,295
2019-04-11T12:44:32.112Z,295
2019-04-11T12:45:33.519Z,305
2019-04-11T12:46:35.027Z,315
2019-04-11T12:47:38.293Z,320
2019-04-11T12:48:37.908Z,325
2019-04-11T12:49:39.313Z,330
2019-04-11T12:50:40.788Z,340
2019-04-11T12:51:42.199Z,370
2019-04-11T12:52:43.603Z,410
2019-04-11T12:53:45.111Z,460
2019-04-11T12:54:46.515Z,520
2019-04-11T12:55:47.920Z,545
2019-04-11T12:56:49.434Z,535
2019-04-11T12:57:50.839Z,460
2019-04-11T12:58:52.311Z,365
2019-04-11T12:59:53.721Z,330
2019-04-11T13:00:55.196Z,305
2019-04-11T13:01:56.606Z,290
2019-04-11T13:02:58.003Z,285
2019-04-11T13:03:59.518Z,280
2019-04-11T13:05:00.919Z,285
2019-04-11T13:06:02.326Z,290
2019-04-11T13:07:03.838Z,285
2019-04-11T13:08:05.246Z,280
2019-04-11T13:09:06.654Z,270
2019-04-11T13:10:08.166Z,265
2019-04-11T13:11:09.567Z,265
2019-04-11T13:12:10.973Z,280
2019-04-11T13:13:12.481Z,295
2019-04-11T13:14:13.888Z,305
2019-04-11T13:15:15.360Z,325
2019-04-11T13:16:16.768Z,335
2019-04-11T13:17:18.241Z,340
2019-04-11T13:18:19.655Z,340
2019-04-11T13:19:21.062Z,340
2019-04-11T13:20:24.611Z,325
2019-04-11T13:21:26.018Z,310
2019-04-11T13:22:27.430Z,310
2019-04-11T13:23:28.934Z,315
2019-04-11T13:24:30.337Z,355
2019-04-11T13:25:31.815Z,415
2019-04-11T13:26:33.223Z,475
2019-04-11T13:27:34.695Z,530
2019-04-11T13:28:36.098Z,500
2019-04-11T13:29:37.666Z,415
2019-04-11T13:30:39.031Z,380
2019-04-11T13:31:40.458Z,345
2019-04-11T13:32:41.857Z,320
2019-04-11T13:33:43.339Z,300
2019-04-11T13:34:44.746Z,280
2019-04-11T13:35:46.222Z,275
2019-04-11T13:36:47.623Z,250
2019-04-11T13:37:49.100Z,245
2019-04-11T13:38:51.600Z,245
2019-04-11T13:39:51.981Z,245
2019-04-11T13:40:53.452Z,250
2019-04-11T13:41:54.861Z,245
2019-04-11T13:42:56.268Z,250
2019-04-11T13:43:57.674Z,250
2019-04-11T13:44:59.183Z,250
2019-04-11T13:46:00.589Z,245
2019-04-11T13:47:01.992Z,250
2019-04-11T13:48:03.509Z,250
2019-04-11T13:49:04.911Z,260
2019-04-11T13:50:16.259Z,260
2019-04-11T13:51:07.829Z,270
2019-04-11T13:52:09.233Z,275
2019-04-11T13:53:10.636Z,280
2019-04-11T13:54:12.163Z,290
2019-04-11T13:55:13.570Z,300
2019-04-11T13:56:14.978Z,310
2019-04-11T13:57:16.476Z,330
2019-04-11T13:58:17.877Z,340
2019-04-11T13:59:19.279Z,345
2019-04-11T14:00:20.791Z,345
2019-04-11T14:01:22.194Z,345
2019-04-11T14:02:23.598Z,350
2019-04-11T14:03:25.113Z,350
2019-04-11T14:04:26.517Z,350
2019-04-11T14:05:27.923Z,340
2019-04-11T14:06:29.435Z,320
2019-04-11T14:07:30.842Z,305
2019-04-11T14:08:32.244Z,295
2019-04-11T14:09:33.756Z,285
2019-04-11T14:10:35.163Z,280
2019-04-11T14:11:36.570Z,275
2019-04-11T14:12:38.081Z,285
2019-04-11T14:13:39.482Z,295
2019-04-11T14:14:41.985Z,305
2019-04-11T14:15:43.387Z,320
2019-04-11T14:16:44.862Z,325
2019-04-11T14:17:46.271Z,320
2019-04-11T14:18:47.680Z,315
2019-04-11T14:19:49.185Z,315
2019-04-11T14:20:50.586Z,320
2019-04-11T14:21:51.994Z,315
2019-04-11T14:22:53.584Z,310
2019-04-11T14:23:54.988Z,300
2019-04-11T14:24:56.670Z,300